Time;durP1;ratioP1;P1;durP2;ratioP2;P2;SDS_P1;SDS_P2;PMS_P1;PMS_P2;Temp;Humidity;BMP_temperature;BMP_pressure;BME280_temperature;BME280_humidity;BME280_pressure;Samples;Min_cycle;Max_cycle;Signal;HPM_P1;HPM_P2
2022/04/11 00:00:16;;;;;;;10.97;6.17;;;5.30;99.90;;;;;;5074892;28;20270;-67
2022/04/11 00:02:43;;;;;;;8.53;4.70;;;5.30;99.90;;;;;;5074879;28;20291;-68
2022/04/11 00:05:10;;;;;;;7.07;4.90;;;5.20;99.90;;;;;;5075187;28;20247;-67
2022/04/11 00:07:37;;;;;;;8.07;4.63;;;5.20;99.90;;;;;;5074748;28;20295;-68
2022/04/11 00:10:04;;;;;;;5.23;3.90;;;5.20;99.90;;;;;;5074779;28;20246;-67
2022/04/11 00:12:34;;;;;;;7.80;3.93;;;5.20;99.90;;;;;;5074796;28;20287;-67
2022/04/11 00:15:01;;;;;;;6.67;3.80;;;5.30;99.90;;;;;;5074784;28;20254;-68
2022/04/11 00:17:29;;;;;;;7.70;3.93;;;5.30;99.90;;;;;;5074967;28;20306;-68
2022/04/11 00:19:56;;;;;;;8.73;4.40;;;5.30;99.90;;;;;;5074372;28;20260;-68
2022/04/11 00:22:23;;;;;;;7.43;4.10;;;5.30;99.90;;;;;;5074867;28;20215;-68
2022/04/11 00:24:50;;;;;;;5.97;3.77;;;5.30;99.90;;;;;;5074651;28;20650;-68
2022/04/11 00:27:17;;;;;;;5.47;3.90;;;5.30;99.90;;;;;;5074547;28;20308;-66
2022/04/11 00:29:44;;;;;;;9.03;4.20;;;5.30;99.90;;;;;;5074572;28;20630;-67
2022/04/11 00:32:11;;;;;;;8.57;4.13;;;5.20;99.90;;;;;;5074620;28;20572;-67
2022/04/11 00:34:39;;;;;;;7.10;4.37;;;5.20;99.90;;;;;;5074462;28;20567;-68
2022/04/11 00:37:06;;;;;;;6.07;3.80;;;5.20;99.90;;;;;;5074417;28;20205;-67
2022/04/11 00:39:32;;;;;;;7.60;3.63;;;5.30;99.90;;;;;;5074554;28;20288;-66
2022/04/11 00:42:07;;;;;;;6.73;4.20;;;5.30;99.90;;;;;;5074420;28;20221;-68
2022/04/11 00:44:33;;;;;;;8.87;4.37;;;5.30;99.90;;;;;;5074081;28;20279;-68
2022/04/11 00:47:00;;;;;;;6.03;4.23;;;5.30;99.90;;;;;;5074450;28;20227;-68
2022/04/11 00:49:27;;;;;;;7.17;4.33;;;5.40;99.90;;;;;;5074091;28;20725;-68
2022/04/11 00:51:56;;;;;;;7.03;4.27;;;5.30;99.90;;;;;;5073946;28;20732;-66
2022/04/11 00:54:23;;;;;;;6.43;4.10;;;5.30;99.90;;;;;;5074346;28;20207;-68
2022/04/11 00:56:51;;;;;;;9.10;4.67;;;5.30;99.90;;;;;;5074124;28;20204;-67
2022/04/11 00:59:18;;;;;;;6.67;4.50;;;5.30;99.90;;;;;;5074230;28;20207;-67
2022/04/11 01:01:45;;;;;;;10.43;4.70;;;5.30;99.90;;;;;;5074020;28;20690;-66
2022/04/11 01:04:23;;;;;;;7.27;4.37;;;5.20;99.90;;;;;;5074183;28;20211;-66
2022/04/11 01:06:50;;;;;;;6.20;4.23;;;5.20;99.90;;;;;;5073942;28;20535;-68
2022/04/11 01:09:18;;;;;;;8.20;5.13;;;5.20;99.90;;;;;;5073728;28;20207;-67
2022/04/11 01:11:45;;;;;;;8.23;4.83;;;5.20;99.90;;;;;;5073581;28;20291;-68
2022/04/11 01:14:12;;;;;;;7.53;4.53;;;5.20;99.90;;;;;;5073995;28;20236;-68
2022/04/11 01:16:38;;;;;;;7.20;4.67;;;5.10;99.90;;;;;;5073355;28;20211;-67
2022/04/11 01:19:06;;;;;;;10.13;4.60;;;5.10;99.90;;;;;;5073769;28;20244;-67
2022/04/11 01:21:34;;;;;;;7.50;4.30;;;5.10;99.90;;;;;;5073609;28;20329;-67
2022/04/11 01:24:01;;;;;;;8.73;4.77;;;5.00;99.90;;;;;;5073757;28;20265;-67
2022/04/11 01:26:28;;;;;;;10.77;4.80;;;5.10;99.90;;;;;;5073442;28;20211;-67
2022/04/11 01:28:56;;;;;;;7.23;4.70;;;5.10;99.90;;;;;;5073337;28;20259;-68
2022/04/11 01:31:23;;;;;;;8.27;4.70;;;5.10;99.90;;;;;;5073512;28;20201;-68
2022/04/11 01:33:50;;;;;;;5.87;4.47;;;5.10;99.90;;;;;;5073491;28;20291;-68
2022/04/11 01:36:16;;;;;;;8.80;4.80;;;5.20;99.90;;;;;;5073800;28;20232;-68
2022/04/11 01:38:45;;;;;;;8.67;4.77;;;5.10;99.90;;;;;;5073325;28;20200;-66
2022/04/11 01:41:11;;;;;;;6.83;4.57;;;5.10;99.90;;;;;;5073247;28;20260;-66
2022/04/11 01:43:38;;;;;;;7.63;4.50;;;5.10;99.90;;;;;;5072883;28;20205;-67
2022/04/11 01:46:05;;;;;;;6.87;4.73;;;5.20;99.90;;;;;;5073596;28;20211;-68
2022/04/11 01:48:32;;;;;;;8.67;4.30;;;5.10;99.90;;;;;;5072923;28;20291;-69
2022/04/11 01:50:59;;;;;;;7.27;4.60;;;5.10;99.90;;;;;;5072949;28;20292;-67
2022/04/11 01:53:26;;;;;;;9.40;5.10;;;5.10;99.90;;;;;;5072953;28;20211;-68
2022/04/11 01:55:54;;;;;;;6.77;4.43;;;5.20;99.90;;;;;;5073055;28;20226;-68
2022/04/11 01:58:21;;;;;;;6.33;4.60;;;5.20;99.90;;;;;;5073075;28;20296;-67
2022/04/11 02:00:48;;;;;;;7.80;4.80;;;5.20;99.90;;;;;;5073048;28;20220;-67
2022/04/11 02:03:15;;;;;;;8.30;4.83;;;5.20;99.90;;;;;;5072465;28;20295;-67
2022/04/11 02:05:43;;;;;;;6.57;4.47;;;5.10;99.90;;;;;;5073124;28;20214;-68
2022/04/11 02:08:11;;;;;;;12.27;4.87;;;5.10;99.90;;;;;;5072948;28;20702;-67
2022/04/11 02:10:39;;;;;;;6.23;4.53;;;5.10;99.90;;;;;;5072670;28;20568;-66
2022/04/11 02:13:08;;;;;;;9.33;4.80;;;5.10;99.90;;;;;;5072695;28;20295;-67
2022/04/11 02:15:35;;;;;;;7.67;5.07;;;5.10;99.90;;;;;;5072598;28;20287;-68
2022/04/11 02:18:02;;;;;;;8.03;4.53;;;5.10;99.90;;;;;;5072557;28;20221;-68
2022/04/11 02:20:29;;;;;;;8.50;4.50;;;5.10;99.90;;;;;;5072156;28;20304;-68
2022/04/11 02:22:58;;;;;;;9.50;5.47;;;5.00;99.90;;;;;;5072657;28;20230;-67
2022/04/11 02:25:26;;;;;;;7.97;5.40;;;5.10;99.90;;;;;;5072355;28;20573;-67
2022/04/11 02:27:54;;;;;;;7.53;5.00;;;5.00;99.90;;;;;;5072323;28;20260;-67
2022/04/11 02:30:22;;;;;;;9.17;5.23;;;5.00;99.90;;;;;;5072161;28;20211;-68
2022/04/11 02:32:50;;;;;;;12.37;6.00;;;5.00;99.90;;;;;;5072539;28;20205;-68
2022/04/11 02:35:17;;;;;;;8.17;5.13;;;4.90;99.90;;;;;;5071948;28;20300;-68
2022/04/11 02:37:45;;;;;;;9.40;5.60;;;4.90;99.90;;;;;;5072089;28;20208;-68
2022/04/11 02:40:13;;;;;;;8.90;5.50;;;4.90;99.90;;;;;;5072368;28;20211;-67
2022/04/11 02:42:42;;;;;;;11.67;5.90;;;4.90;99.90;;;;;;5071848;28;20225;-67
2022/04/11 02:45:10;;;;;;;9.43;5.37;;;4.80;99.90;;;;;;5072307;28;20299;-68
2022/04/11 02:47:38;;;;;;;8.10;5.37;;;4.80;99.90;;;;;;5071769;28;20216;-66
2022/04/11 02:50:06;;;;;;;7.83;5.30;;;4.70;99.90;;;;;;5072305;28;20701;-67
2022/04/11 02:52:33;;;;;;;10.60;5.77;;;4.70;99.90;;;;;;5072084;28;20288;-69
2022/04/11 02:55:00;;;;;;;10.07;5.47;;;4.70;99.90;;;;;;5071929;28;20213;-67
2022/04/11 02:57:29;;;;;;;13.53;5.77;;;4.60;99.90;;;;;;5071660;28;20209;-67
2022/04/11 02:59:56;;;;;;;12.07;6.73;;;4.60;99.90;;;;;;5072064;28;20291;-67
2022/04/11 03:02:23;;;;;;;11.70;5.97;;;4.50;99.90;;;;;;5071574;28;20220;-67
2022/04/11 03:04:51;;;;;;;13.13;6.30;;;4.50;99.90;;;;;;5071987;28;20750;-67
2022/04/11 03:07:18;;;;;;;13.50;6.70;;;4.50;99.90;;;;;;5071696;28;20623;-67
2022/04/11 03:09:45;;;;;;;14.87;8.63;;;4.50;99.90;;;;;;5071655;28;20254;-68
2022/04/11 03:12:12;;;;;;;16.37;8.07;;;4.50;99.90;;;;;;5071493;28;20326;-68
2022/04/11 03:14:39;;;;;;;16.07;8.33;;;4.50;99.90;;;;;;5071727;28;20247;-67
2022/04/11 03:17:06;;;;;;;20.77;9.57;;;4.50;99.90;;;;;;5071675;28;20259;-68
2022/04/11 03:19:33;;;;;;;20.73;10.70;;;4.50;99.90;;;;;;5071687;28;20284;-67
2022/04/11 03:22:01;;;;;;;18.17;10.10;;;4.50;99.90;;;;;;5071418;28;20221;-67
2022/04/11 03:24:28;;;;;;;20.20;10.77;;;4.50;99.90;;;;;;5071685;28;20206;-67
2022/04/11 03:26:54;;;;;;;21.87;11.70;;;4.50;99.90;;;;;;5071466;28;20320;-67
2022/04/11 03:29:21;;;;;;;24.37;11.63;;;4.50;99.90;;;;;;5071192;28;20726;-67
2022/04/11 03:31:48;;;;;;;23.73;12.77;;;4.40;99.90;;;;;;5071634;28;20212;-68
2022/04/11 03:34:15;;;;;;;24.73;13.87;;;4.40;99.90;;;;;;5071471;28;20577;-67
2022/04/11 03:36:42;;;;;;;34.07;16.27;;;4.50;99.90;;;;;;5071927;28;20295;-66
2022/04/11 03:39:10;;;;;;;34.97;15.77;;;4.50;99.90;;;;;;5071184;28;20207;-67
2022/04/11 03:41:37;;;;;;;36.93;18.20;;;4.40;99.90;;;;;;5071228;28;20319;-68
2022/04/11 03:44:04;;;;;;;35.73;18.00;;;4.40;99.90;;;;;;5071471;28;20232;-67
2022/04/11 03:46:31;;;;;;;34.80;18.23;;;4.50;99.90;;;;;;5070976;28;20204;-67
2022/04/11 03:48:58;;;;;;;35.27;19.90;;;4.50;99.90;;;;;;5071088;28;20204;-68
2022/04/11 03:51:25;;;;;;;37.97;20.47;;;4.60;99.90;;;;;;5070973;28;20207;-67
2022/04/11 03:53:52;;;;;;;38.23;20.30;;;4.70;99.90;;;;;;5071081;28;20243;-68
2022/04/11 03:56:20;;;;;;;44.00;24.13;;;4.70;99.90;;;;;;5071124;28;20296;-68
2022/04/11 03:58:47;;;;;;;46.07;24.67;;;4.80;99.90;;;;;;5071301;28;20573;-67
2022/04/11 04:01:14;;;;;;;46.87;26.33;;;4.80;99.90;;;;;;5071099;28;20562;-67
2022/04/11 04:03:41;;;;;;;53.37;26.73;;;4.80;99.90;;;;;;5071261;28;20567;-68
2022/04/11 04:06:08;;;;;;;43.60;24.50;;;4.90;99.90;;;;;;5071080;28;20230;-66
2022/04/11 04:08:35;;;;;;;47.47;24.70;;;4.90;99.90;;;;;;5071165;28;20747;-68
2022/04/11 04:11:03;;;;;;;48.30;23.27;;;4.90;99.90;;;;;;5071025;28;20212;-67
2022/04/11 04:13:34;;;;;;;40.13;22.20;;;4.90;99.90;;;;;;5071218;28;20213;-68
2022/04/11 04:16:01;;;;;;;37.60;20.67;;;5.00;99.90;;;;;;5070907;28;20203;-68
2022/04/11 04:18:27;;;;;;;32.80;18.20;;;5.00;99.90;;;;;;5070696;28;20252;-68
2022/04/11 04:20:54;;;;;;;28.97;15.67;;;5.00;99.90;;;;;;5071182;28;20571;-67
2022/04/11 04:23:21;;;;;;;22.80;12.00;;;5.00;99.90;;;;;;5070795;28;20244;-67
2022/04/11 04:25:48;;;;;;;20.40;9.97;;;5.00;99.90;;;;;;5072698;28;20295;-67
2022/04/11 04:28:17;;;;;;;15.17;8.83;;;5.00;99.90;;;;;;5074237;28;20331;-68
2022/04/11 04:30:45;;;;;;;19.40;9.23;;;4.90;99.90;;;;;;5074687;28;20254;-68
2022/04/11 04:33:13;;;;;;;16.73;7.57;;;5.00;99.90;;;;;;5074369;28;20212;-67
2022/04/11 04:35:40;;;;;;;12.03;6.77;;;5.00;99.90;;;;;;5074318;28;20204;-67
2022/04/11 04:38:07;;;;;;;11.83;6.53;;;5.10;99.90;;;;;;5074613;28;20344;-67
2022/04/11 04:40:34;;;;;;;12.43;6.60;;;5.10;99.90;;;;;;5074232;28;20208;-68
2022/04/11 04:43:01;;;;;;;13.37;7.03;;;5.20;99.90;;;;;;5073973;28;20242;-67
2022/04/11 04:45:28;;;;;;;12.53;6.97;;;5.20;99.90;;;;;;5074226;28;20212;-67
2022/04/11 04:47:56;;;;;;;18.13;8.47;;;5.20;99.90;;;;;;5074429;28;20211;-68
2022/04/11 04:50:23;;;;;;;15.00;8.43;;;5.20;99.90;;;;;;5074261;28;20316;-68
2022/04/11 04:52:50;;;;;;;17.87;8.70;;;5.30;99.90;;;;;;5074317;28;20218;-67
2022/04/11 04:55:16;;;;;;;14.53;8.90;;;5.30;99.90;;;;;;5073951;28;20240;-68
2022/04/11 04:57:43;;;;;;;14.33;8.97;;;5.40;99.90;;;;;;5074164;28;20283;-67
2022/04/11 05:00:11;;;;;;;15.83;8.57;;;5.40;99.90;;;;;;5074171;28;20573;-68
2022/04/11 05:02:38;;;;;;;14.90;8.90;;;5.50;99.90;;;;;;5073781;28;20247;-68
2022/04/11 05:05:09;;;;;;;20.67;9.43;;;5.50;99.90;;;;;;5073589;28;20300;-68
2022/04/11 05:07:37;;;;;;;18.17;9.80;;;5.60;99.90;;;;;;5074272;28;20683;-68
2022/04/11 05:10:05;;;;;;;21.93;10.90;;;5.60;99.90;;;;;;5074129;28;20299;-68
2022/04/11 05:12:39;;;;;;;24.17;10.97;;;5.60;99.90;;;;;;5073677;28;20254;-67
2022/04/11 05:15:06;;;;;;;21.17;10.40;;;5.70;99.90;;;;;;5073435;28;20197;-67
2022/04/11 05:17:33;;;;;;;27.40;11.23;;;5.70;99.90;;;;;;5073393;28;20506;-68
2022/04/11 05:20:00;;;;;;;22.67;11.17;;;5.80;99.90;;;;;;5073356;28;20387;-70
2022/04/11 05:22:28;;;;;;;23.63;11.27;;;5.90;99.90;;;;;;5073662;28;20248;-67
2022/04/11 05:24:55;;;;;;;23.60;11.10;;;6.00;99.90;;;;;;5073508;28;20315;-67
2022/04/11 05:27:22;;;;;;;21.60;11.27;;;6.10;99.90;;;;;;5073146;28;20205;-68
2022/04/11 05:29:49;;;;;;;23.20;11.43;;;6.30;99.90;;;;;;5073608;28;20195;-67
2022/04/11 05:32:16;;;;;;;18.60;9.73;;;6.30;99.90;;;;;;5073356;28;20239;-67
2022/04/11 05:34:43;;;;;;;20.17;10.53;;;6.40;99.90;;;;;;5073465;28;20201;-68
2022/04/11 05:37:11;;;;;;;21.40;10.57;;;6.50;99.90;;;;;;5072971;28;20251;-67
2022/04/11 05:39:39;;;;;;;18.73;9.67;;;6.60;99.90;;;;;;5073252;28;20620;-67
2022/04/11 05:42:07;;;;;;;19.17;8.70;;;6.70;99.90;;;;;;5073075;28;20221;-68
2022/04/11 05:44:34;;;;;;;15.63;8.03;;;6.80;99.90;;;;;;5073308;28;20216;-68
2022/04/11 05:47:01;;;;;;;15.23;6.10;;;6.90;99.90;;;;;;5073133;28;20682;-68
2022/04/11 05:49:28;;;;;;;9.10;5.77;;;7.00;99.90;;;;;;5073249;28;20259;-67
2022/04/11 05:51:55;;;;;;;10.40;6.03;;;7.10;99.90;;;;;;5072991;28;20627;-67
2022/04/11 05:54:21;;;;;;;9.03;5.17;;;7.20;99.90;;;;;;5073403;28;20207;-67
2022/04/11 05:56:50;;;;;;;8.27;4.13;;;7.30;99.90;;;;;;5073019;28;20296;-67
2022/04/11 05:59:17;;;;;;;7.03;4.30;;;7.30;99.90;;;;;;5072657;28;20208;-67
2022/04/11 06:01:44;;;;;;;7.10;4.30;;;7.30;99.90;;;;;;5072478;28;20231;-68
2022/04/11 06:04:10;;;;;;;7.33;3.77;;;7.40;99.90;;;;;;5072786;28;20201;-68
2022/04/11 06:06:37;;;;;;;10.83;4.83;;;7.40;99.90;;;;;;5072860;28;20212;-67
2022/04/11 06:09:04;;;;;;;7.83;4.27;;;7.40;99.90;;;;;;5072600;28;20248;-67
2022/04/11 06:11:31;;;;;;;7.70;4.07;;;7.40;99.90;;;;;;5072702;28;20628;-68
2022/04/11 06:14:00;;;;;;;8.13;4.43;;;7.50;99.90;;;;;;5072250;28;20205;-67
2022/04/11 06:16:27;;;;;;;6.33;4.10;;;7.40;99.90;;;;;;5072349;28;20699;-68
2022/04/11 06:18:54;;;;;;;10.47;5.00;;;7.50;99.90;;;;;;5072050;28;20211;-67
2022/04/11 06:21:21;;;;;;;13.23;6.40;;;7.50;99.90;;;;;;5072254;28;20211;-68
2022/04/11 06:23:48;;;;;;;12.03;6.73;;;7.50;99.90;;;;;;5072273;28;20322;-68
2022/04/11 06:26:15;;;;;;;12.40;6.83;;;7.60;99.90;;;;;;5072338;28;20299;-67
2022/04/11 06:28:42;;;;;;;17.03;7.30;;;7.60;99.90;;;;;;5071954;28;20677;-67
2022/04/11 06:31:11;;;;;;;10.33;5.90;;;7.60;99.90;;;;;;5071951;28;20641;-67
2022/04/11 06:33:39;;;;;;;11.17;6.47;;;7.60;99.90;;;;;;5072533;28;20300;-68
2022/04/11 06:36:06;;;;;;;13.20;6.70;;;7.60;99.90;;;;;;5072056;28;20212;-68
2022/04/11 06:38:33;;;;;;;10.20;5.70;;;7.60;99.90;;;;;;5072366;28;20204;-68
2022/04/11 06:41:00;;;;;;;9.17;5.30;;;7.70;99.90;;;;;;5072090;28;20204;-67
2022/04/11 06:43:27;;;;;;;10.00;5.70;;;7.60;99.90;;;;;;5072472;28;20312;-67
2022/04/11 06:45:54;;;;;;;9.23;5.50;;;7.60;99.90;;;;;;5071927;28;20694;-67
2022/04/11 06:48:22;;;;;;;7.83;5.30;;;7.60;99.90;;;;;;5071715;28;20259;-67
2022/04/11 06:50:50;;;;;;;7.43;4.30;;;7.60;99.90;;;;;;5071885;28;20201;-67
2022/04/11 06:53:17;;;;;;;8.03;5.03;;;7.60;99.90;;;;;;5071752;28;20216;-67
2022/04/11 06:55:44;;;;;;;5.73;3.80;;;7.60;99.90;;;;;;5071634;28;20304;-68
2022/04/11 06:58:11;;;;;;;7.10;4.37;;;7.50;99.90;;;;;;5071944;28;20219;-67
2022/04/11 07:00:38;;;;;;;8.80;4.90;;;7.50;99.90;;;;;;5071529;28;20303;-67
2022/04/11 07:03:05;;;;;;;6.53;4.10;;;7.50;99.90;;;;;;5071424;28;20218;-67
2022/04/11 07:05:33;;;;;;;9.07;4.10;;;7.50;99.90;;;;;;5071719;28;20240;-68
2022/04/11 07:08:00;;;;;;;6.63;4.20;;;7.60;99.90;;;;;;5071390;28;20301;-68
2022/04/11 07:10:27;;;;;;;6.97;4.70;;;7.60;99.90;;;;;;5071513;28;20262;-67
2022/04/11 07:12:54;;;;;;;9.13;4.80;;;7.70;99.90;;;;;;5071588;28;20662;-68
2022/04/11 07:15:20;;;;;;;8.93;4.40;;;7.80;99.90;;;;;;5071761;28;20204;-67
2022/04/11 07:17:47;;;;;;;9.03;4.67;;;7.70;99.90;;;;;;5071642;28;20310;-67
2022/04/11 07:20:14;;;;;;;7.77;4.30;;;7.70;99.90;;;;;;5071794;28;20634;-67
2022/04/11 07:22:43;;;;;;;8.83;3.90;;;7.80;99.90;;;;;;5071175;28;20224;-67
2022/04/11 07:25:10;;;;;;;7.87;4.03;;;7.80;99.90;;;;;;5071525;28;20216;-69
2022/04/11 07:27:37;;;;;;;7.27;4.10;;;7.80;99.90;;;;;;5071210;28;20268;-68
2022/04/11 07:30:05;;;;;;;7.83;4.07;;;7.90;99.90;;;;;;5071489;28;20283;-68
2022/04/11 07:32:31;;;;;;;6.43;3.53;;;7.90;99.90;;;;;;5071659;28;20291;-68
2022/04/11 07:34:59;;;;;;;7.73;3.70;;;8.10;99.90;;;;;;5071533;28;20213;-69
2022/04/11 07:37:27;;;;;;;5.97;3.50;;;8.20;99.90;;;;;;5071628;28;20545;-68
2022/04/11 07:39:56;;;;;;;5.23;3.50;;;8.20;99.90;;;;;;5071523;28;20295;-68
2022/04/11 07:42:23;;;;;;;5.80;3.20;;;8.30;99.90;;;;;;5071510;28;20721;-68
2022/04/11 07:44:49;;;;;;;6.67;3.77;;;8.30;99.90;;;;;;5071452;28;20745;-69
2022/04/11 07:47:16;;;;;;;7.77;3.83;;;8.40;99.90;;;;;;5071311;28;20215;-68
2022/04/11 07:49:44;;;;;;;7.17;3.80;;;8.50;99.90;;;;;;5071308;28;20227;-67
2022/04/11 07:52:11;;;;;;;6.77;4.27;;;8.60;99.90;;;;;;5071132;28;20200;-68
2022/04/11 07:54:38;;;;;;;6.23;3.37;;;8.70;99.90;;;;;;5071138;28;20232;-68
2022/04/11 07:57:08;;;;;;;4.27;3.13;;;8.80;99.90;;;;;;5071380;28;20352;-68
2022/04/11 07:59:35;;;;;;;8.73;3.97;;;8.80;99.90;;;;;;5071242;28;20238;-67
2022/04/11 08:02:02;;;;;;;6.37;3.53;;;8.80;99.90;;;;;;5075026;28;20236;-68
2022/04/11 08:04:29;;;;;;;12.70;3.40;;;8.80;99.90;;;;;;5074950;28;20295;-68
2022/04/11 08:06:56;;;;;;;7.87;3.50;;;8.80;99.90;;;;;;5074816;28;20211;-68
2022/04/11 08:09:22;;;;;;;5.87;3.10;;;8.80;99.90;;;;;;5074904;28;20210;-67
2022/04/11 08:11:49;;;;;;;7.97;3.70;;;8.90;99.90;;;;;;5074666;28;20239;-68
2022/04/11 08:14:17;;;;;;;5.70;3.27;;;8.90;99.90;;;;;;5074970;28;20317;-68
2022/04/11 08:16:45;;;;;;;7.53;3.00;;;9.00;99.90;;;;;;5074710;28;20259;-67
2022/04/11 08:19:11;;;;;;;7.10;3.00;;;9.00;99.90;;;;;;5075044;28;20293;-68
2022/04/11 08:21:38;;;;;;;4.13;2.77;;;9.10;99.90;;;;;;5074899;28;20366;-67
2022/04/11 08:24:06;;;;;;;5.60;3.10;;;9.00;99.90;;;;;;5074798;28;20708;-68
2022/04/11 08:26:33;;;;;;;7.13;3.30;;;9.00;99.90;;;;;;5074677;28;20223;-67
2022/04/11 08:28:59;;;;;;;5.77;2.83;;;8.90;99.90;;;;;;5074273;28;20347;-67
2022/04/11 08:31:28;;;;;;;5.83;3.03;;;8.90;99.90;;;;;;5074669;28;20201;-67
2022/04/11 08:33:55;;;;;;;5.27;2.97;;;9.00;99.90;;;;;;5074340;28;20212;-67
2022/04/11 08:36:21;;;;;;;3.63;2.63;;;9.10;99.90;;;;;;5074971;28;20295;-67
2022/04/11 08:38:50;;;;;;;4.00;3.10;;;9.10;99.90;;;;;;5074393;28;20311;-68
2022/04/11 08:41:19;;;;;;;3.60;2.63;;;9.10;99.90;;;;;;5074384;28;20215;-67
2022/04/11 08:43:46;;;;;;;6.60;3.20;;;9.10;99.90;;;;;;5074194;28;20748;-68
2022/04/11 08:46:16;;;;;;;6.43;2.97;;;9.20;99.90;;;;;;5074346;28;20632;-68
2022/04/11 08:48:44;;;;;;;4.33;2.80;;;9.40;99.90;;;;;;5074029;28;20566;-68
2022/04/11 08:51:11;;;;;;;5.53;3.10;;;9.50;99.90;;;;;;5073710;28;20295;-69
2022/04/11 08:53:38;;;;;;;6.87;2.90;;;9.60;99.90;;;;;;5074100;28;20343;-67
2022/04/11 08:56:05;;;;;;;4.87;2.93;;;9.60;99.90;;;;;;5073761;28;20296;-68
2022/04/11 08:58:32;;;;;;;4.67;2.90;;;9.60;99.90;;;;;;5073765;28;20205;-67
2022/04/11 09:01:00;;;;;;;5.47;2.77;;;9.60;99.90;;;;;;5073704;28;20247;-68
2022/04/11 09:03:27;;;;;;;4.27;2.70;;;9.60;99.90;;;;;;5073852;28;20678;-68
2022/04/11 09:06:06;;;;;;;5.63;2.87;;;9.70;99.90;;;;;;5074531;28;20304;-68
2022/04/11 09:08:49;;;;;;;4.77;2.50;;;9.80;99.90;;;;;;5073948;28;20680;-68
2022/04/11 09:11:28;;;;;;;6.83;3.07;;;9.80;99.90;;;;;;5073723;28;20648;-67
2022/04/11 09:13:55;;;;;;;4.20;2.97;;;9.70;99.90;;;;;;5074010;28;20667;-69
2022/04/11 09:16:22;;;;;;;6.13;2.80;;;9.70;99.90;;;;;;5073784;28;20252;-68
2022/04/11 09:18:52;;;;;;;5.40;2.83;;;9.70;99.90;;;;;;5073719;28;20642;-68
2022/04/11 09:21:22;;;;;;;5.87;2.97;;;9.80;99.90;;;;;;5073438;28;20227;-68
2022/04/11 09:23:50;;;;;;;4.13;2.70;;;9.80;99.90;;;;;;5073722;28;20217;-67
2022/04/11 09:26:21;;;;;;;6.03;2.57;;;9.90;99.90;;;;;;5073379;28;20243;-68
2022/04/11 09:29:04;;;;;;;4.17;2.80;;;10.00;99.90;;;;;;5073292;28;20456;-67
2022/04/11 09:31:31;;;;;;;4.37;2.43;;;10.20;99.90;;;;;;5071542;28;20208;-67
2022/04/11 09:33:58;;;;;;;5.60;2.73;;;10.40;99.90;;;;;;5073316;28;20292;-68
2022/04/11 09:36:46;;;;;;;5.20;2.60;;;10.40;99.90;;;;;;5073296;28;20207;-68
2022/04/11 09:39:13;;;;;;;10.20;3.20;;;10.40;99.90;;;;;;5073077;28;20189;-68
2022/04/11 09:41:43;;;;;;;5.73;3.00;;;10.30;99.90;;;;;;5073418;28;20202;-67
2022/04/11 09:44:26;;;;;;;7.00;2.93;;;10.20;99.90;;;;;;5073499;28;20560;-67
2022/04/11 09:46:55;;;;;;;5.10;3.43;;;10.10;99.90;;;;;;5073338;28;20236;-68
2022/04/11 09:49:22;;;;;;;5.03;2.83;;;9.90;99.90;;;;;;5073279;28;20205;-67
2022/04/11 09:52:06;;;;;;;5.80;2.93;;;9.80;99.90;;;;;;5073738;28;20649;-68
2022/04/11 09:54:34;;;;;;;4.60;2.70;;;9.70;99.90;;;;;;5073429;28;20189;-67
2022/04/11 09:57:02;;;;;;;3.30;2.40;;;9.70;99.90;;;;;;5072798;28;20295;-69
2022/04/11 09:59:30;;;;;;;5.07;2.87;;;9.70;99.90;;;;;;5072940;28;20359;-67
2022/04/11 10:01:58;;;;;;;3.90;2.50;;;9.70;99.90;;;;;;5072781;28;20251;-67
2022/04/11 10:04:25;;;;;;;5.57;2.77;;;9.70;99.90;;;;;;5072459;28;20217;-68
2022/04/11 10:06:53;;;;;;;4.67;2.70;;;9.70;99.90;;;;;;5072872;28;20613;-66
2022/04/11 10:09:23;;;;;;;7.07;2.80;;;9.80;99.90;;;;;;5072627;28;20201;-68
2022/04/11 10:11:51;;;;;;;4.50;2.70;;;9.80;99.90;;;;;;5072617;28;20658;-69
2022/04/11 10:14:23;;;;;;;6.10;2.83;;;9.80;99.90;;;;;;5072426;28;20216;-68
2022/04/11 10:16:52;;;;;;;4.37;2.97;;;9.90;99.90;;;;;;5073038;28;20228;-68
2022/04/11 10:19:23;;;;;;;4.63;2.80;;;10.00;99.90;;;;;;5072416;28;20582;-67
2022/04/11 10:21:52;;;;;;;5.97;2.83;;;10.00;99.90;;;;;;5072154;28;20192;-68
2022/04/11 10:24:34;;;;;;;5.83;2.80;;;10.10;99.90;;;;;;5071380;28;20234;-67
2022/04/11 10:27:17;;;;;;;6.20;3.33;;;10.00;99.90;;;;;;5072333;28;20197;-68
2022/04/11 10:29:44;;;;;;;6.30;3.10;;;10.00;99.90;;;;;;5072086;28;20239;-67
2022/04/11 10:32:13;;;;;;;8.73;3.53;;;10.00;99.90;;;;;;5072382;28;20212;-68
2022/04/11 10:34:54;;;;;;;4.97;2.63;;;10.00;99.90;;;;;;5072294;28;20719;-68
2022/04/11 10:37:23;;;;;;;4.70;2.70;;;9.90;99.90;;;;;;5072224;28;20189;-68
2022/04/11 10:39:53;;;;;;;3.67;2.50;;;9.90;99.90;;;;;;5072149;28;20299;-69
2022/04/11 10:42:24;;;;;;;4.70;2.87;;;9.90;99.90;;;;;;5071763;28;20295;-67
2022/04/11 10:45:04;;;;;;;4.13;2.67;;;9.90;99.90;;;;;;5070561;28;20224;-67
2022/04/11 10:47:53;;;;;;;5.63;2.70;;;9.90;99.90;;;;;;5070918;28;20200;-68
2022/04/11 10:50:48;;;;;;;3.83;2.53;;;9.80;99.90;;;;;;5074351;28;20227;-68
2022/04/11 10:53:28;;;;;;;4.00;2.67;;;9.90;99.90;;;;;;5029924;28;20205;-68
2022/04/11 10:56:07;;;;;;;5.53;2.60;;;9.90;99.90;;;;;;5014163;28;20690;-67
2022/04/11 10:58:51;;;;;;;4.53;2.63;;;9.90;99.90;;;;;;5032773;28;20213;-68
2022/04/11 11:02:05;;;;;;;4.97;2.43;;;10.00;99.90;;;;;;5031948;28;20194;-67
2022/04/11 11:04:47;;;;;;;4.63;2.33;;;10.10;99.90;;;;;;5032068;28;20296;-67
2022/04/11 11:07:40;;;;;;;4.50;2.80;;;10.10;99.90;;;;;;5031093;28;20216;-68
2022/04/11 11:10:52;;;;;;;5.17;2.63;;;10.20;99.90;;;;;;5028599;28;20205;-68
2022/04/11 11:13:39;;;;;;;3.50;2.50;;;10.20;99.90;;;;;;5012601;28;20305;-68
2022/04/11 11:16:28;;;;;;;6.87;2.93;;;10.30;99.90;;;;;;5029231;28;20253;-69
2022/04/11 11:19:13;;;;;;;3.50;2.50;;;10.40;99.90;;;;;;5028953;28;20244;-68
2022/04/11 11:22:08;;;;;;;4.73;2.73;;;10.40;99.90;;;;;;5029136;28;20292;-68
2022/04/11 11:24:35;;;;;;;4.53;2.60;;;10.40;99.90;;;;;;5056379;28;20220;-66
2022/04/11 11:27:14;;;;;;;6.87;3.10;;;10.40;99.90;;;;;;5071243;28;20217;-66
2022/04/11 11:29:44;;;;;;;2.57;2.20;;;10.40;99.90;;;;;;5070598;28;20246;-66
2022/04/11 11:32:13;;;;;;;5.67;2.50;;;10.50;99.90;;;;;;5071148;28;20242;-67
2022/04/11 11:34:42;;;;;;;5.80;2.67;;;10.50;99.90;;;;;;5072908;28;20261;-66
2022/04/11 11:37:12;;;;;;;5.97;3.10;;;10.60;99.90;;;;;;5075314;28;20236;-66
2022/04/11 11:39:41;;;;;;;4.90;2.73;;;10.60;99.90;;;;;;5075875;28;20200;-66
2022/04/11 11:42:10;;;;;;;3.67;2.50;;;10.60;99.90;;;;;;5075498;28;20199;-67
2022/04/11 11:44:44;;;;;;;5.23;2.47;;;10.50;99.90;;;;;;5075172;28;20232;-67
2022/04/11 11:47:12;;;;;;;3.67;2.50;;;10.50;99.90;;;;;;5075187;28;20246;-66
2022/04/11 11:49:41;;;;;;;3.67;2.37;;;10.40;99.90;;;;;;5075263;28;20582;-67
2022/04/11 11:52:12;;;;;;;3.60;2.30;;;10.40;99.90;;;;;;5074924;28;20223;-65
2022/04/11 11:54:41;;;;;;;6.53;2.40;;;10.40;99.90;;;;;;5075189;28;20204;-66
2022/04/11 11:57:14;;;;;;;3.57;2.50;;;10.40;99.90;;;;;;5074926;28;20209;-66
2022/04/11 11:59:54;;;;;;;4.53;2.80;;;10.40;99.90;;;;;;5075327;28;20603;-66
2022/04/11 12:05:16;;;;;;;4.30;2.30;;;10.30;99.90;;;;;;5074871;28;20236;-67
2022/04/11 12:07:43;;;;;;;4.33;2.43;;;10.20;99.90;;;;;;5075166;28;20616;-66
2022/04/11 12:10:10;;;;;;;6.50;3.10;;;10.10;99.90;;;;;;5075008;28;20650;-67
2022/04/11 12:12:38;;;;;;;8.00;2.60;;;10.10;99.90;;;;;;5075426;28;20216;-66
2022/04/11 12:15:08;;;;;;;4.93;2.53;;;10.10;99.90;;;;;;5074855;28;20304;-67
2022/04/11 12:17:36;;;;;;;3.63;2.60;;;10.10;99.90;;;;;;5074786;28;20199;-67
2022/04/11 12:20:08;;;;;;;6.83;2.63;;;10.10;99.90;;;;;;5074767;28;20208;-66
2022/04/11 12:22:35;;;;;;;5.70;3.00;;;10.10;99.90;;;;;;5074667;28;20207;-69
2022/04/11 12:25:21;;;;;;;5.40;2.97;;;10.10;99.90;;;;;;5074595;28;20232;-66
2022/04/11 12:27:49;;;;;;;5.50;3.07;;;10.20;99.90;;;;;;5074648;28;20643;-66
2022/04/11 12:30:17;;;;;;;5.33;2.90;;;10.30;99.90;;;;;;5074137;28;20767;-67
2022/04/11 12:32:45;;;;;;;6.00;2.80;;;10.20;99.90;;;;;;5074728;28;20208;-67
2022/04/11 12:35:17;;;;;;;6.17;2.80;;;10.20;99.90;;;;;;5074513;28;20204;-67
2022/04/11 12:37:49;;;;;;;6.57;3.00;;;10.20;99.90;;;;;;5074345;28;20208;-66
2022/04/11 12:40:16;;;;;;;6.27;3.40;;;10.20;99.90;;;;;;5074331;28;20545;-66
2022/04/11 12:42:44;;;;;;;7.33;3.37;;;10.30;99.90;;;;;;5074573;28;20255;-66
2022/04/11 12:45:14;;;;;;;8.20;3.07;;;10.30;99.90;;;;;;5074228;28;20224;-66
2022/04/11 12:48:04;;;;;;;7.63;3.97;;;10.30;99.90;;;;;;5073855;28;20211;-67
2022/04/11 12:50:32;;;;;;;17.03;4.60;;;10.40;99.90;;;;;;5066051;28;20302;-66
2022/04/11 12:52:59;;;;;;;11.23;4.70;;;10.40;99.90;;;;;;5074205;28;20212;-66
2022/04/11 12:55:28;;;;;;;12.03;5.03;;;10.40;99.90;;;;;;5074030;28;20208;-65
2022/04/11 12:58:05;;;;;;;15.67;5.40;;;10.40;99.90;;;;;;5074172;28;20212;-66
2022/04/11 13:00:34;;;;;;;8.63;4.10;;;10.40;99.90;;;;;;5074134;28;20572;-67
2022/04/11 13:03:01;;;;;;;9.67;4.37;;;10.30;99.90;;;;;;5073656;28;20212;-66